sensor_id;sensor_type;location;lat;lon;timestamp;temperature;humidity
18268;DHT22;9260;49.998;19.880;2023-02-22T00:04:10;3.00;99.90
18268;DHT22;9260;49.998;19.880;2023-02-22T00:14:15;2.90;99.90
18268;DHT22;9260;49.998;19.880;2023-02-22T00:24:21;2.90;99.90
18268;DHT22;9260;49.998;19.880;2023-02-22T00:34:27;3.00;99.90
18268;DHT22;9260;49.998;19.880;2023-02-22T00:44:30;3.10;99.90
18268;DHT22;9260;49.998;19.880;2023-02-22T00:54:36;3.10;99.90
18268;DHT22;9260;49.998;19.880;2023-02-22T01:04:40;3.20;99.90
18268;DHT22;9260;49.998;19.880;2023-02-22T01:14:47;3.20;99.90
18268;DHT22;9260;49.998;19.880;2023-02-22T01:24:51;3.20;99.90
18268;DHT22;9260;49.998;19.880;2023-02-22T01:34:57;3.20;99.90
18268;DHT22;9260;49.998;19.880;2023-02-22T01:55:50;3.30;99.90
18268;DHT22;9260;49.998;19.880;2023-02-22T02:05:58;3.30;99.90
18268;DHT22;9260;49.998;19.880;2023-02-22T02:16:05;3.20;99.90
18268;DHT22;9260;49.998;19.880;2023-02-22T02:26:28;3.20;99.90
18268;DHT22;9260;49.998;19.880;2023-02-22T02:36:46;3.10;99.90
18268;DHT22;9260;49.998;19.880;2023-02-22T02:47:00;3.10;99.90
18268;DHT22;9260;49.998;19.880;2023-02-22T02:57:10;3.10;99.90
18268;DHT22;9260;49.998;19.880;2023-02-22T03:07:26;3.20;99.90
18268;DHT22;9260;49.998;19.880;2023-02-22T03:17:45;3.10;99.90
18268;DHT22;9260;49.998;19.880;2023-02-22T03:27:55;3.10;99.90
18268;DHT22;9260;49.998;19.880;2023-02-22T03:38:08;3.10;99.90
18268;DHT22;9260;49.998;19.880;2023-02-22T03:48:18;3.10;99.90
18268;DHT22;9260;49.998;19.880;2023-02-22T03:58:30;3.10;99.90
18268;DHT22;9260;49.998;19.880;2023-02-22T04:08:34;3.00;99.90
18268;DHT22;9260;49.998;19.880;2023-02-22T04:18:40;3.00;99.90
18268;DHT22;9260;49.998;19.880;2023-02-22T04:28:45;3.00;99.90
18268;DHT22;9260;49.998;19.880;2023-02-22T04:38:53;3.10;99.90
18268;DHT22;9260;49.998;19.880;2023-02-22T04:48:57;3.00;99.90
18268;DHT22;9260;49.998;19.880;2023-02-22T04:59:06;3.00;99.90
18268;DHT22;9260;49.998;19.880;2023-02-22T05:09:11;3.00;99.90
18268;DHT22;9260;49.998;19.880;2023-02-22T05:19:17;3.00;99.90
18268;DHT22;9260;49.998;19.880;2023-02-22T05:29:20;3.00;99.90
18268;DHT22;9260;49.998;19.880;2023-02-22T05:39:26;3.00;99.90
18268;DHT22;9260;49.998;19.880;2023-02-22T05:49:29;3.00;99.90
18268;DHT22;9260;49.998;19.880;2023-02-22T05:59:35;3.00;99.90
18268;DHT22;9260;49.998;19.880;2023-02-22T06:09:38;3.00;99.90
18268;DHT22;9260;49.998;19.880;2023-02-22T06:19:44;3.10;99.90
18268;DHT22;9260;49.998;19.880;2023-02-22T06:29:48;3.20;99.90
18268;DHT22;9260;49.998;19.880;2023-02-22T06:39:53;3.20;99.90
18268;DHT22;9260;49.998;19.880;2023-02-22T06:49:58;3.30;99.90
18268;DHT22;9260;49.998;19.880;2023-02-22T07:00:04;3.50;99.90
18268;DHT22;9260;49.998;19.880;2023-02-22T07:10:17;3.70;99.90
18268;DHT22;9260;49.998;19.880;2023-02-22T07:20:25;3.90;99.90
18268;DHT22;9260;49.998;19.880;2023-02-22T07:30:31;4.10;99.90
18268;DHT22;9260;49.998;19.880;2023-02-22T07:40:38;4.30;99.90
18268;DHT22;9260;49.998;19.880;2023-02-22T07:50:42;4.50;99.90
18268;DHT22;9260;49.998;19.880;2023-02-22T08:00:47;4.90;99.90
18268;DHT22;9260;49.998;19.880;2023-02-22T08:10:51;5.10;99.90
18268;DHT22;9260;49.998;19.880;2023-02-22T08:20:56;5.50;99.90
18268;DHT22;9260;49.998;19.880;2023-02-22T08:31:00;5.70;99.90
18268;DHT22;9260;49.998;19.880;2023-02-22T08:41:05;5.90;99.90
18268;DHT22;9260;49.998;19.880;2023-02-22T08:51:09;6.30;99.90
18268;DHT22;9260;49.998;19.880;2023-02-22T09:01:14;6.70;99.90
18268;DHT22;9260;49.998;19.880;2023-02-22T09:11:29;7.10;99.90
18268;DHT22;9260;49.998;19.880;2023-02-22T09:21:34;7.60;99.90
18268;DHT22;9260;49.998;19.880;2023-02-22T09:31:39;8.70;99.90
18268;DHT22;9260;49.998;19.880;2023-02-22T09:41:50;10.50;99.90
18268;DHT22;9260;49.998;19.880;2023-02-22T09:52:02;14.90;99.90
18268;DHT22;9260;49.998;19.880;2023-02-22T10:02:22;16.90;99.90
18268;DHT22;9260;49.998;19.880;2023-02-22T10:12:36;15.80;99.90
18268;DHT22;9260;49.998;19.880;2023-02-22T10:22:51;18.50;99.90
18268;DHT22;9260;49.998;19.880;2023-02-22T10:33:04;18.90;99.90
18268;DHT22;9260;49.998;19.880;2023-02-22T10:43:13;16.70;99.90
18268;DHT22;9260;49.998;19.880;2023-02-22T10:53:17;16.40;99.90
18268;DHT22;9260;49.998;19.880;2023-02-22T11:03:23;14.10;99.90
18268;DHT22;9260;49.998;19.880;2023-02-22T11:13:29;12.30;99.90
18268;DHT22;9260;49.998;19.880;2023-02-22T11:23:37;12.60;99.90
18268;DHT22;9260;49.998;19.880;2023-02-22T11:33:50;12.60;99.90
18268;DHT22;9260;49.998;19.880;2023-02-22T11:44:19;11.80;99.90
18268;DHT22;9260;49.998;19.880;2023-02-22T11:54:37;11.50;99.90
18268;DHT22;9260;49.998;19.880;2023-02-22T12:04:58;11.70;99.90
18268;DHT22;9260;49.998;19.880;2023-02-22T12:15:27;22.80;99.90
18268;DHT22;9260;49.998;19.880;2023-02-22T12:25:35;28.20;99.90
18268;DHT22;9260;49.998;19.880;2023-02-22T12:35:47;25.60;99.90
18268;DHT22;9260;49.998;19.880;2023-02-22T12:45:59;28.10;99.90
18268;DHT22;9260;49.998;19.880;2023-02-22T12:56:15;29.30;99.90
18268;DHT22;9260;49.998;19.880;2023-02-22T13:06:35;25.10;99.90
18268;DHT22;9260;49.998;19.880;2023-02-22T13:16:47;25.50;99.90
18268;DHT22;9260;49.998;19.880;2023-02-22T13:26:58;21.80;99.90
18268;DHT22;9260;49.998;19.880;2023-02-22T13:37:15;17.00;99.90
18268;DHT22;9260;49.998;19.880;2023-02-22T13:58:28;13.10;99.90
18268;DHT22;9260;49.998;19.880;2023-02-22T14:08:41;12.00;99.90
18268;DHT22;9260;49.998;19.880;2023-02-22T14:18:49;10.60;99.90
18268;DHT22;9260;49.998;19.880;2023-02-22T14:29:15;9.90;99.90
18268;DHT22;9260;49.998;19.880;2023-02-22T14:39:26;9.40;99.90
18268;DHT22;9260;49.998;19.880;2023-02-22T15:00:03;8.30;99.90
18268;DHT22;9260;49.998;19.880;2023-02-22T15:10:26;8.00;99.90
18268;DHT22;9260;49.998;19.880;2023-02-22T15:20:34;7.50;99.90
18268;DHT22;9260;49.998;19.880;2023-02-22T15:30:39;7.20;99.90
18268;DHT22;9260;49.998;19.880;2023-02-22T15:40:46;6.90;99.90
18268;DHT22;9260;49.998;19.880;2023-02-22T15:51:06;6.40;99.90
18268;DHT22;9260;49.998;19.880;2023-02-22T16:01:16;6.20;99.90
18268;DHT22;9260;49.998;19.880;2023-02-22T16:11:23;5.90;99.90
18268;DHT22;9260;49.998;19.880;2023-02-22T16:21:49;5.70;99.90
18268;DHT22;9260;49.998;19.880;2023-02-22T16:31:54;5.30;99.90
18268;DHT22;9260;49.998;19.880;2023-02-22T16:42:01;5.00;99.90
18268;DHT22;9260;49.998;19.880;2023-02-22T16:52:06;4.80;99.90
18268;DHT22;9260;49.998;19.880;2023-02-22T17:02:13;4.60;99.90
18268;DHT22;9260;49.998;19.880;2023-02-22T17:12:17;4.20;99.90
18268;DHT22;9260;49.998;19.880;2023-02-22T17:22:22;4.00;99.90
18268;DHT22;9260;49.998;19.880;2023-02-22T17:32:26;3.60;99.90
18268;DHT22;9260;49.998;19.880;2023-02-22T17:42:31;3.00;99.90
18268;DHT22;9260;49.998;19.880;2023-02-22T17:52:35;2.90;99.90
18268;DHT22;9260;49.998;19.880;2023-02-22T18:02:41;2.70;99.90
18268;DHT22;9260;49.998;19.880;2023-02-22T18:12:47;2.50;99.90
18268;DHT22;9260;49.998;19.880;2023-02-22T18:22:56;2.20;99.90
18268;DHT22;9260;49.998;19.880;2023-02-22T18:33:00;2.10;99.90
18268;DHT22;9260;49.998;19.880;2023-02-22T18:43:06;1.80;99.90
18268;DHT22;9260;49.998;19.880;2023-02-22T18:53:09;1.60;99.90
18268;DHT22;9260;49.998;19.880;2023-02-22T19:03:15;1.20;99.90
18268;DHT22;9260;49.998;19.880;2023-02-22T19:13:19;1.00;99.90
18268;DHT22;9260;49.998;19.880;2023-02-22T19:23:24;0.70;99.90
18268;DHT22;9260;49.998;19.880;2023-02-22T19:33:29;0.40;99.90
18268;DHT22;9260;49.998;19.880;2023-02-22T19:43:37;0.10;99.90
18268;DHT22;9260;49.998;19.880;2023-02-22T19:53:42;-0.20;99.90
18268;DHT22;9260;49.998;19.880;2023-02-22T20:03:49;-0.50;99.90
18268;DHT22;9260;49.998;19.880;2023-02-22T20:13:55;-0.80;99.90
18268;DHT22;9260;49.998;19.880;2023-02-22T20:24:03;-1.00;99.90
18268;DHT22;9260;49.998;19.880;2023-02-22T20:34:09;-1.20;99.90
18268;DHT22;9260;49.998;19.880;2023-02-22T20:44:17;-1.30;99.90
18268;DHT22;9260;49.998;19.880;2023-02-22T20:54:21;-1.40;99.90
18268;DHT22;9260;49.998;19.880;2023-02-22T21:04:26;-1.60;99.90
18268;DHT22;9260;49.998;19.880;2023-02-22T21:14:34;-1.10;99.90
18268;DHT22;9260;49.998;19.880;2023-02-22T21:24:39;-0.70;99.90
18268;DHT22;9260;49.998;19.880;2023-02-22T21:34:43;-0.60;99.90
18268;DHT22;9260;49.998;19.880;2023-02-22T21:44:48;-0.60;99.90
18268;DHT22;9260;49.998;19.880;2023-02-22T21:54:57;-0.70;99.90
18268;DHT22;9260;49.998;19.880;2023-02-22T22:05:02;-0.80;99.90
18268;DHT22;9260;49.998;19.880;2023-02-22T22:15:07;-0.90;99.90
18268;DHT22;9260;49.998;19.880;2023-02-22T22:25:13;-1.00;99.90
18268;DHT22;9260;49.998;19.880;2023-02-22T22:35:19;-1.10;99.90
18268;DHT22;9260;49.998;19.880;2023-02-22T22:45:25;-1.20;99.90
18268;DHT22;9260;49.998;19.880;2023-02-22T22:55:29;-1.20;99.90
18268;DHT22;9260;49.998;19.880;2023-02-22T23:05:39;-1.30;99.90
18268;DHT22;9260;49.998;19.880;2023-02-22T23:15:44;-1.40;99.90
18268;DHT22;9260;49.998;19.880;2023-02-22T23:26:00;-1.50;99.90
18268;DHT22;9260;49.998;19.880;2023-02-22T23:36:06;-1.50;99.90
18268;DHT22;9260;49.998;19.880;2023-02-22T23:46:15;-1.60;99.90
18268;DHT22;9260;49.998;19.880;2023-02-22T23:56:22;-1.70;99.90
